TimeAKST,TemperatureF,Dew PointF,Humidity,Sea Level PressureIn,VisibilityMPH,Wind Direction,Wind SpeedMPH,Gust SpeedMPH,PrecipitationIn,Events,Conditions,WindDirDegrees,DateUTC
12:53 AM,42.1,41.0,96,30.41,10.0,South,3.5,-,N/A,,Overcast,190,2013-01-16 09:53:00
1:07 AM,42.8,41.0,93,30.41,9.0,SSW,3.5,-,N/A,,Overcast,210,2013-01-16 10:07:00
1:51 AM,42.8,39.2,87,30.40,10.0,SSW,4.6,-,N/A,,Overcast,200,2013-01-16 10:51:00
1:53 AM,42.1,39.9,92,30.41,10.0,South,5.8,-,N/A,,Overcast,190,2013-01-16 10:53:00
2:07 AM,42.8,39.2,87,30.40,10.0,Variable,4.6,-,N/A,,Overcast,0,2013-01-16 11:07:00
3:38 AM,42.8,39.2,87,30.38,10.0,Variable,3.5,-,N/A,,Overcast,0,2013-01-16 12:38:00
3:53 AM,41.0,39.0,93,30.39,10.0,SSW,5.8,-,N/A,,Overcast,210,2013-01-16 12:53:00
4:53 AM,41.0,39.0,93,30.38,10.0,SSW,4.6,-,N/A,,Overcast,200,2013-01-16 13:53:00
5:53 AM,41.0,39.0,93,30.38,10.0,Calm,Calm,-,N/A,,Overcast,0,2013-01-16 14:53:00
6:53 AM,41.0,39.0,93,30.39,10.0,SSW,3.5,-,N/A,,Overcast,210,2013-01-16 15:53:00
7:53 AM,41.0,39.0,93,30.37,10.0,Calm,Calm,-,N/A,,Overcast,0,2013-01-16 16:53:00
8:49 AM,41.0,39.2,93,30.34,10.0,SSW,3.5,-,N/A,,Overcast,210,2013-01-16 17:49:00
8:53 AM,41.0,39.0,93,30.34,10.0,Variable,4.6,-,N/A,,Overcast,0,2013-01-16 17:53:00
9:53 AM,41.0,39.0,93,30.32,10.0,Calm,Calm,-,N/A,,Overcast,0,2013-01-16 18:53:00
10:25 AM,41.0,39.2,93,30.29,5.0,Variable,4.6,-,0.01,Rain,Light Rain,0,2013-01-16 19:25:00
11:23 AM,41.0,39.2,93,30.27,8.0,Variable,4.6,-,0.00,Rain,Light Rain,0,2013-01-16 20:23:00
11:53 AM,42.1,39.0,89,30.25,8.0,Variable,5.8,-,0.00,Rain,Light Rain,0,2013-01-16 20:53:00
12:53 PM,42.1,39.9,92,30.20,5.0,Variable,6.9,-,0.01,Rain,Light Rain,0,2013-01-16 21:53:00
1:53 PM,43.0,41.0,93,30.17,5.0,South,8.1,20.7,0.00,Rain,Light Rain,170,2013-01-16 22:53:00
2:27 PM,42.8,41.0,93,30.14,2.5,SSE,9.2,19.6,0.00,Rain,Light Rain,160,2013-01-16 23:27:00
2:53 PM,43.0,41.0,93,30.14,2.5,South,10.4,16.1,0.01,Rain,Light Rain,180,2013-01-16 23:53:00
3:16 PM,42.8,42.8,100,30.14,2.5,SSW,12.7,18.4,0.00,Rain,Light Rain,200,2013-01-17 00:16:00
3:36 PM,42.8,42.8,100,30.14,5.0,Variable,6.9,-,0.02,Rain,Light Rain,0,2013-01-17 00:36:00
3:53 PM,44.1,42.1,93,30.13,5.0,South,8.1,-,0.03,Rain,Light Rain,190,2013-01-17 00:53:00
4:20 PM,44.6,42.8,93,30.11,6.0,SSW,10.4,16.1,0.02,Rain,Light Rain,200,2013-01-17 01:20:00
4:48 PM,44.6,42.8,93,30.10,8.0,South,8.1,-,0.03,Rain,Light Rain,190,2013-01-17 01:48:00
4:53 PM,44.1,42.1,93,30.10,7.0,South,5.8,-,0.03,Rain,Light Rain,170,2013-01-17 01:53:00
5:53 PM,44.1,42.1,93,30.08,8.0,SSW,8.1,-,0.09,Rain,Light Rain,200,2013-01-17 02:53:00
6:53 PM,44.1,42.1,93,30.07,8.0,SSW,10.4,-,0.08,Rain,Light Rain,210,2013-01-17 03:53:00
7:53 PM,44.1,41.0,89,30.05,7.0,South,5.8,-,0.06,Rain,Light Rain,190,2013-01-17 04:53:00
8:53 PM,44.1,41.0,89,30.02,7.0,South,8.1,19.6,0.01,Rain,Light Rain,180,2013-01-17 05:53:00
9:53 PM,44.1,42.1,93,30.00,10.0,Variable,6.9,-,0.01,,Overcast,0,2013-01-17 06:53:00
10:53 PM,44.1,42.1,93,29.97,10.0,Variable,6.9,-,0.00,,Overcast,0,2013-01-17 07:53:00
11:53 PM,45.0,42.1,90,29.93,7.0,South,9.2,-,0.01,Rain,Light Rain,170,2013-01-17 08:53:00